sensor_id;sensor_type;location;lat;lon;timestamp;temperature;humidity
20881;DHT22;10600;53.096;8.802;2022-11-18T00:00:22;5.30;99.90
20881;DHT22;10600;53.096;8.802;2022-11-18T00:01:26;5.30;99.90
20881;DHT22;10600;53.096;8.802;2022-11-18T00:02:27;5.30;99.90
20881;DHT22;10600;53.096;8.802;2022-11-18T00:03:35;5.30;99.90
20881;DHT22;10600;53.096;8.802;2022-11-18T00:04:48;5.30;99.90
20881;DHT22;10600;53.096;8.802;2022-11-18T00:05:53;5.40;99.90
20881;DHT22;10600;53.096;8.802;2022-11-18T00:06:54;5.40;99.90
20881;DHT22;10600;53.096;8.802;2022-11-18T00:07:54;5.30;99.90
20881;DHT22;10600;53.096;8.802;2022-11-18T00:08:57;5.40;99.90
20881;DHT22;10600;53.096;8.802;2022-11-18T00:09:59;5.30;99.90
20881;DHT22;10600;53.096;8.802;2022-11-18T00:11:04;5.30;99.90
20881;DHT22;10600;53.096;8.802;2022-11-18T00:12:11;5.30;99.90
20881;DHT22;10600;53.096;8.802;2022-11-18T00:13:31;5.20;99.90
20881;DHT22;10600;53.096;8.802;2022-11-18T00:14:50;5.20;99.90
20881;DHT22;10600;53.096;8.802;2022-11-18T00:15:59;5.20;99.90
20881;DHT22;10600;53.096;8.802;2022-11-18T00:17:04;5.20;99.90
20881;DHT22;10600;53.096;8.802;2022-11-18T00:18:12;5.20;99.90
20881;DHT22;10600;53.096;8.802;2022-11-18T00:19:15;5.20;99.90
20881;DHT22;10600;53.096;8.802;2022-11-18T00:20:16;5.20;99.90
20881;DHT22;10600;53.096;8.802;2022-11-18T00:21:17;5.20;99.90
20881;DHT22;10600;53.096;8.802;2022-11-18T00:22:17;5.20;99.90
20881;DHT22;10600;53.096;8.802;2022-11-18T00:23:18;5.20;99.90
20881;DHT22;10600;53.096;8.802;2022-11-18T00:24:19;5.30;99.90
20881;DHT22;10600;53.096;8.802;2022-11-18T00:25:20;5.30;99.90
20881;DHT22;10600;53.096;8.802;2022-11-18T00:26:21;5.30;99.90
20881;DHT22;10600;53.096;8.802;2022-11-18T00:27:21;5.30;99.90
20881;DHT22;10600;53.096;8.802;2022-11-18T00:28:22;5.30;99.90
20881;DHT22;10600;53.096;8.802;2022-11-18T00:29:23;5.20;99.90
20881;DHT22;10600;53.096;8.802;2022-11-18T00:30:27;5.20;99.90
20881;DHT22;10600;53.096;8.802;2022-11-18T00:31:28;5.20;99.90
20881;DHT22;10600;53.096;8.802;2022-11-18T00:32:29;5.20;99.90
20881;DHT22;10600;53.096;8.802;2022-11-18T00:33:29;5.10;99.90
20881;DHT22;10600;53.096;8.802;2022-11-18T00:34:31;5.20;99.90
20881;DHT22;10600;53.096;8.802;2022-11-18T00:35:31;5.20;99.90
20881;DHT22;10600;53.096;8.802;2022-11-18T00:36:32;5.20;99.90
20881;DHT22;10600;53.096;8.802;2022-11-18T00:37:33;5.20;99.90
20881;DHT22;10600;53.096;8.802;2022-11-18T00:38:33;5.10;99.90
20881;DHT22;10600;53.096;8.802;2022-11-18T00:39:34;5.10;99.90
20881;DHT22;10600;53.096;8.802;2022-11-18T00:40:35;5.10;99.90
20881;DHT22;10600;53.096;8.802;2022-11-18T00:41:35;5.10;99.90
20881;DHT22;10600;53.096;8.802;2022-11-18T00:42:55;5.10;99.90
20881;DHT22;10600;53.096;8.802;2022-11-18T00:43:55;5.10;99.90
20881;DHT22;10600;53.096;8.802;2022-11-18T00:44:56;5.10;99.90
20881;DHT22;10600;53.096;8.802;2022-11-18T00:45:57;5.10;99.90
20881;DHT22;10600;53.096;8.802;2022-11-18T00:46:57;5.20;99.90
20881;DHT22;10600;53.096;8.802;2022-11-18T00:47:58;5.10;99.90
20881;DHT22;10600;53.096;8.802;2022-11-18T00:48:59;5.20;99.90
20881;DHT22;10600;53.096;8.802;2022-11-18T00:49:59;5.20;99.90
20881;DHT22;10600;53.096;8.802;2022-11-18T00:51:13;5.20;99.90
20881;DHT22;10600;53.096;8.802;2022-11-18T00:52:17;5.20;99.90
20881;DHT22;10600;53.096;8.802;2022-11-18T00:53:19;5.20;99.90
20881;DHT22;10600;53.096;8.802;2022-11-18T00:54:20;5.20;99.90
20881;DHT22;10600;53.096;8.802;2022-11-18T00:55:21;5.10;99.90
20881;DHT22;10600;53.096;8.802;2022-11-18T00:56:21;5.20;99.90
20881;DHT22;10600;53.096;8.802;2022-11-18T00:57:22;5.20;99.90
20881;DHT22;10600;53.096;8.802;2022-11-18T00:58:23;5.20;99.90
20881;DHT22;10600;53.096;8.802;2022-11-18T00:59:24;5.20;99.90
20881;DHT22;10600;53.096;8.802;2022-11-18T01:00:25;5.30;99.90
20881;DHT22;10600;53.096;8.802;2022-11-18T01:01:25;5.20;99.90
20881;DHT22;10600;53.096;8.802;2022-11-18T01:02:26;5.30;99.90
20881;DHT22;10600;53.096;8.802;2022-11-18T01:03:28;5.20;99.90
20881;DHT22;10600;53.096;8.802;2022-11-18T01:04:28;5.20;99.90
20881;DHT22;10600;53.096;8.802;2022-11-18T01:05:29;5.20;99.90
20881;DHT22;10600;53.096;8.802;2022-11-18T01:06:30;5.20;99.90
20881;DHT22;10600;53.096;8.802;2022-11-18T01:07:30;5.20;99.90
20881;DHT22;10600;53.096;8.802;2022-11-18T01:08:31;5.20;99.90
20881;DHT22;10600;53.096;8.802;2022-11-18T01:09:32;5.20;99.90
20881;DHT22;10600;53.096;8.802;2022-11-18T01:10:33;5.20;99.90
20881;DHT22;10600;53.096;8.802;2022-11-18T01:11:34;5.20;99.90
20881;DHT22;10600;53.096;8.802;2022-11-18T01:12:53;5.20;99.90
20881;DHT22;10600;53.096;8.802;2022-11-18T01:14:12;5.20;99.90
20881;DHT22;10600;53.096;8.802;2022-11-18T01:15:13;5.20;99.90
20881;DHT22;10600;53.096;8.802;2022-11-18T01:16:24;5.10;99.90
20881;DHT22;10600;53.096;8.802;2022-11-18T01:17:25;5.20;99.90
20881;DHT22;10600;53.096;8.802;2022-11-18T01:18:30;5.10;99.90
20881;DHT22;10600;53.096;8.802;2022-11-18T01:19:30;5.10;99.90
20881;DHT22;10600;53.096;8.802;2022-11-18T01:20:32;5.20;99.90
20881;DHT22;10600;53.096;8.802;2022-11-18T01:21:32;5.10;99.90
20881;DHT22;10600;53.096;8.802;2022-11-18T01:22:33;5.10;99.90
20881;DHT22;10600;53.096;8.802;2022-11-18T01:23:34;5.10;99.90
20881;DHT22;10600;53.096;8.802;2022-11-18T01:24:34;5.10;99.90
20881;DHT22;10600;53.096;8.802;2022-11-18T01:25:36;5.10;99.90
20881;DHT22;10600;53.096;8.802;2022-11-18T01:26:37;5.10;99.90
20881;DHT22;10600;53.096;8.802;2022-11-18T01:27:38;5.00;99.90
20881;DHT22;10600;53.096;8.802;2022-11-18T01:28:39;5.10;99.90
20881;DHT22;10600;53.096;8.802;2022-11-18T01:29:40;5.10;99.90
20881;DHT22;10600;53.096;8.802;2022-11-18T01:30:41;5.10;99.90
20881;DHT22;10600;53.096;8.802;2022-11-18T01:31:42;5.10;99.90
20881;DHT22;10600;53.096;8.802;2022-11-18T01:32:43;5.10;99.90
20881;DHT22;10600;53.096;8.802;2022-11-18T01:33:44;5.10;99.90
20881;DHT22;10600;53.096;8.802;2022-11-18T01:34:45;5.10;99.90
20881;DHT22;10600;53.096;8.802;2022-11-18T01:35:46;5.10;99.90
20881;DHT22;10600;53.096;8.802;2022-11-18T01:36:46;5.10;99.90
20881;DHT22;10600;53.096;8.802;2022-11-18T01:37:47;5.10;99.90
20881;DHT22;10600;53.096;8.802;2022-11-18T01:38:49;5.10;99.90
20881;DHT22;10600;53.096;8.802;2022-11-18T01:39:49;5.10;99.90
20881;DHT22;10600;53.096;8.802;2022-11-18T01:40:50;5.10;99.90
20881;DHT22;10600;53.096;8.802;2022-11-18T01:41:51;5.10;99.90
20881;DHT22;10600;53.096;8.802;2022-11-18T01:42:51;5.10;99.90
20881;DHT22;10600;53.096;8.802;2022-11-18T01:43:58;5.10;99.90
20881;DHT22;10600;53.096;8.802;2022-11-18T01:46:21;5.10;99.90
20881;DHT22;10600;53.096;8.802;2022-11-18T01:47:23;5.10;99.90
20881;DHT22;10600;53.096;8.802;2022-11-18T01:48:29;5.10;99.90
20881;DHT22;10600;53.096;8.802;2022-11-18T01:49:30;5.10;99.90
20881;DHT22;10600;53.096;8.802;2022-11-18T01:50:32;5.10;99.90
20881;DHT22;10600;53.096;8.802;2022-11-18T01:51:40;5.10;99.90
20881;DHT22;10600;53.096;8.802;2022-11-18T01:52:44;5.10;99.90
20881;DHT22;10600;53.096;8.802;2022-11-18T01:53:49;5.10;99.90
20881;DHT22;10600;53.096;8.802;2022-11-18T01:54:54;5.10;99.90
20881;DHT22;10600;53.096;8.802;2022-11-18T01:55:59;5.00;99.90
20881;DHT22;10600;53.096;8.802;2022-11-18T01:57:05;5.00;99.90
20881;DHT22;10600;53.096;8.802;2022-11-18T01:58:14;5.00;99.90
20881;DHT22;10600;53.096;8.802;2022-11-18T01:59:19;5.00;99.90
20881;DHT22;10600;53.096;8.802;2022-11-18T02:00:21;5.00;99.90
20881;DHT22;10600;53.096;8.802;2022-11-18T02:01:22;5.00;99.90
20881;DHT22;10600;53.096;8.802;2022-11-18T02:02:23;5.10;99.90
20881;DHT22;10600;53.096;8.802;2022-11-18T02:03:24;5.00;99.90
20881;DHT22;10600;53.096;8.802;2022-11-18T02:04:26;5.00;99.90
20881;DHT22;10600;53.096;8.802;2022-11-18T02:05:27;5.00;99.90
20881;DHT22;10600;53.096;8.802;2022-11-18T02:06:28;5.00;99.90
20881;DHT22;10600;53.096;8.802;2022-11-18T02:07:34;5.00;99.90
20881;DHT22;10600;53.096;8.802;2022-11-18T02:08:36;5.00;99.90
20881;DHT22;10600;53.096;8.802;2022-11-18T02:09:38;5.00;99.90
20881;DHT22;10600;53.096;8.802;2022-11-18T02:10:39;5.00;99.90
20881;DHT22;10600;53.096;8.802;2022-11-18T02:11:40;5.00;99.90
20881;DHT22;10600;53.096;8.802;2022-11-18T02:12:51;5.00;99.90
20881;DHT22;10600;53.096;8.802;2022-11-18T02:13:52;5.00;99.90
20881;DHT22;10600;53.096;8.802;2022-11-18T02:14:53;5.00;99.90
20881;DHT22;10600;53.096;8.802;2022-11-18T02:16:16;5.00;99.90
20881;DHT22;10600;53.096;8.802;2022-11-18T02:17:46;5.00;99.90
20881;DHT22;10600;53.096;8.802;2022-11-18T02:20:13;5.00;99.90
20881;DHT22;10600;53.096;8.802;2022-11-18T02:23:03;4.90;99.90
20881;DHT22;10600;53.096;8.802;2022-11-18T02:30:08;5.00;99.90
20881;DHT22;10600;53.096;8.802;2022-11-18T02:35:30;4.90;99.90
20881;DHT22;10600;53.096;8.802;2022-11-18T02:36:51;4.90;99.90
20881;DHT22;10600;53.096;8.802;2022-11-18T02:38:04;4.90;99.90
20881;DHT22;10600;53.096;8.802;2022-11-18T02:39:16;4.90;99.90
20881;DHT22;10600;53.096;8.802;2022-11-18T02:40:23;5.00;99.90
20881;DHT22;10600;53.096;8.802;2022-11-18T02:41:28;5.00;99.90
20881;DHT22;10600;53.096;8.802;2022-11-18T02:42:30;5.00;99.90
20881;DHT22;10600;53.096;8.802;2022-11-18T02:43:40;5.00;99.90
20881;DHT22;10600;53.096;8.802;2022-11-18T02:44:44;5.00;99.90
20881;DHT22;10600;53.096;8.802;2022-11-18T02:45:49;5.00;99.90
20881;DHT22;10600;53.096;8.802;2022-11-18T02:46:57;4.90;99.90
20881;DHT22;10600;53.096;8.802;2022-11-18T02:48:02;4.90;99.90
20881;DHT22;10600;53.096;8.802;2022-11-18T02:49:08;4.90;99.90
20881;DHT22;10600;53.096;8.802;2022-11-18T02:50:14;4.90;99.90
20881;DHT22;10600;53.096;8.802;2022-11-18T02:51:19;4.80;99.90
20881;DHT22;10600;53.096;8.802;2022-11-18T02:52:22;4.90;99.90
20881;DHT22;10600;53.096;8.802;2022-11-18T02:53:24;4.80;99.90
20881;DHT22;10600;53.096;8.802;2022-11-18T02:54:28;4.80;99.90
20881;DHT22;10600;53.096;8.802;2022-11-18T02:55:31;4.90;99.90
20881;DHT22;10600;53.096;8.802;2022-11-18T02:56:34;4.90;99.90
20881;DHT22;10600;53.096;8.802;2022-11-18T02:57:36;4.90;99.90
20881;DHT22;10600;53.096;8.802;2022-11-18T02:58:38;4.90;99.90
20881;DHT22;10600;53.096;8.802;2022-11-18T02:59:39;4.90;99.90
20881;DHT22;10600;53.096;8.802;2022-11-18T03:00:39;4.90;99.90
20881;DHT22;10600;53.096;8.802;2022-11-18T03:01:40;4.90;99.90
20881;DHT22;10600;53.096;8.802;2022-11-18T03:02:46;4.80;99.90
20881;DHT22;10600;53.096;8.802;2022-11-18T03:03:47;4.80;99.90
20881;DHT22;10600;53.096;8.802;2022-11-18T03:04:51;4.80;99.90
20881;DHT22;10600;53.096;8.802;2022-11-18T03:07:29;4.80;99.90
20881;DHT22;10600;53.096;8.802;2022-11-18T03:08:37;4.80;99.90
20881;DHT22;10600;53.096;8.802;2022-11-18T03:09:41;4.80;99.90
20881;DHT22;10600;53.096;8.802;2022-11-18T03:10:51;4.80;99.90
20881;DHT22;10600;53.096;8.802;2022-11-18T03:11:57;4.80;99.90
20881;DHT22;10600;53.096;8.802;2022-11-18T03:16:17;4.80;99.90
20881;DHT22;10600;53.096;8.802;2022-11-18T03:19:07;4.70;99.90
20881;DHT22;10600;53.096;8.802;2022-11-18T03:21:36;4.70;99.90
20881;DHT22;10600;53.096;8.802;2022-11-18T03:22:43;4.70;99.90
20881;DHT22;10600;53.096;8.802;2022-11-18T03:23:58;4.70;99.90
20881;DHT22;10600;53.096;8.802;2022-11-18T03:25:15;4.70;99.90
20881;DHT22;10600;53.096;8.802;2022-11-18T03:26:30;4.70;99.90
20881;DHT22;10600;53.096;8.802;2022-11-18T03:27:45;4.70;99.90
20881;DHT22;10600;53.096;8.802;2022-11-18T03:28:58;4.70;99.90
20881;DHT22;10600;53.096;8.802;2022-11-18T03:30:05;4.60;99.90
20881;DHT22;10600;53.096;8.802;2022-11-18T03:31:14;4.60;99.90
20881;DHT22;10600;53.096;8.802;2022-11-18T03:32:22;4.60;99.90
20881;DHT22;10600;53.096;8.802;2022-11-18T03:33:44;4.60;99.90
20881;DHT22;10600;53.096;8.802;2022-11-18T03:34:49;4.60;99.90
20881;DHT22;10600;53.096;8.802;2022-11-18T03:35:52;4.50;99.90
20881;DHT22;10600;53.096;8.802;2022-11-18T03:36:57;4.50;99.90
20881;DHT22;10600;53.096;8.802;2022-11-18T03:38:05;4.60;99.90
20881;DHT22;10600;53.096;8.802;2022-11-18T03:39:09;4.60;99.90
20881;DHT22;10600;53.096;8.802;2022-11-18T03:40:19;4.60;99.90
20881;DHT22;10600;53.096;8.802;2022-11-18T03:41:21;4.60;99.90
20881;DHT22;10600;53.096;8.802;2022-11-18T03:42:37;4.60;99.90
20881;DHT22;10600;53.096;8.802;2022-11-18T03:43:46;4.60;99.90
20881;DHT22;10600;53.096;8.802;2022-11-18T03:44:56;4.50;99.90
20881;DHT22;10600;53.096;8.802;2022-11-18T03:46:10;4.50;99.90
20881;DHT22;10600;53.096;8.802;2022-11-18T03:47:39;4.60;99.90
20881;DHT22;10600;53.096;8.802;2022-11-18T03:48:43;4.60;99.90
20881;DHT22;10600;53.096;8.802;2022-11-18T03:49:57;4.50;99.90
20881;DHT22;10600;53.096;8.802;2022-11-18T03:51:04;4.60;99.90
20881;DHT22;10600;53.096;8.802;2022-11-18T03:52:19;4.50;99.90
20881;DHT22;10600;53.096;8.802;2022-11-18T03:53:24;4.50;99.90
20881;DHT22;10600;53.096;8.802;2022-11-18T03:54:28;4.50;99.90
20881;DHT22;10600;53.096;8.802;2022-11-18T03:55:34;4.50;99.90
20881;DHT22;10600;53.096;8.802;2022-11-18T03:56:40;4.40;99.90
20881;DHT22;10600;53.096;8.802;2022-11-18T03:59:17;4.40;99.90
20881;DHT22;10600;53.096;8.802;2022-11-18T04:00:17;4.40;99.90
20881;DHT22;10600;53.096;8.802;2022-11-18T04:01:32;4.40;99.90
20881;DHT22;10600;53.096;8.802;2022-11-18T04:02:35;4.40;99.90
20881;DHT22;10600;53.096;8.802;2022-11-18T04:03:37;4.40;99.90
20881;DHT22;10600;53.096;8.802;2022-11-18T04:04:38;4.40;99.90
20881;DHT22;10600;53.096;8.802;2022-11-18T04:05:41;4.40;99.90
20881;DHT22;10600;53.096;8.802;2022-11-18T04:06:50;4.40;99.90
20881;DHT22;10600;53.096;8.802;2022-11-18T04:07:58;4.40;99.90
20881;DHT22;10600;53.096;8.802;2022-11-18T04:09:23;4.30;99.90
20881;DHT22;10600;53.096;8.802;2022-11-18T04:10:35;4.30;99.90
20881;DHT22;10600;53.096;8.802;2022-11-18T04:11:44;4.40;99.90
20881;DHT22;10600;53.096;8.802;2022-11-18T04:13:15;4.40;99.90
20881;DHT22;10600;53.096;8.802;2022-11-18T04:14:17;4.30;99.90
20881;DHT22;10600;53.096;8.802;2022-11-18T04:15:19;4.30;99.90
20881;DHT22;10600;53.096;8.802;2022-11-18T04:16:20;4.30;99.90
20881;DHT22;10600;53.096;8.802;2022-11-18T04:17:22;4.20;99.90
20881;DHT22;10600;53.096;8.802;2022-11-18T04:18:26;4.20;99.90
20881;DHT22;10600;53.096;8.802;2022-11-18T04:19:27;4.20;99.90
20881;DHT22;10600;53.096;8.802;2022-11-18T04:20:27;4.20;99.90
20881;DHT22;10600;53.096;8.802;2022-11-18T04:21:28;4.30;99.90
20881;DHT22;10600;53.096;8.802;2022-11-18T04:22:29;4.30;99.90
20881;DHT22;10600;53.096;8.802;2022-11-18T04:23:29;4.30;99.90
20881;DHT22;10600;53.096;8.802;2022-11-18T04:24:30;4.30;99.90
20881;DHT22;10600;53.096;8.802;2022-11-18T04:25:31;4.30;99.90
20881;DHT22;10600;53.096;8.802;2022-11-18T04:26:31;4.30;99.90
20881;DHT22;10600;53.096;8.802;2022-11-18T04:27:32;4.30;99.90
20881;DHT22;10600;53.096;8.802;2022-11-18T04:28:33;4.30;99.90
20881;DHT22;10600;53.096;8.802;2022-11-18T04:29:33;4.30;99.90
20881;DHT22;10600;53.096;8.802;2022-11-18T04:30:34;4.20;99.90
20881;DHT22;10600;53.096;8.802;2022-11-18T04:31:35;4.20;99.90
20881;DHT22;10600;53.096;8.802;2022-11-18T04:32:36;4.20;99.90
20881;DHT22;10600;53.096;8.802;2022-11-18T04:33:36;4.10;99.90
20881;DHT22;10600;53.096;8.802;2022-11-18T04:34:37;4.20;99.90
20881;DHT22;10600;53.096;8.802;2022-11-18T04:35:37;4.20;99.90
20881;DHT22;10600;53.096;8.802;2022-11-18T04:36:38;4.10;99.90
20881;DHT22;10600;53.096;8.802;2022-11-18T04:37:39;4.10;99.90
20881;DHT22;10600;53.096;8.802;2022-11-18T04:38:39;4.10;99.90
20881;DHT22;10600;53.096;8.802;2022-11-18T04:39:40;4.00;99.90
20881;DHT22;10600;53.096;8.802;2022-11-18T04:40:40;4.00;99.90
20881;DHT22;10600;53.096;8.802;2022-11-18T04:41:41;4.00;99.90
20881;DHT22;10600;53.096;8.802;2022-11-18T04:42:57;4.00;99.90
20881;DHT22;10600;53.096;8.802;2022-11-18T04:43:57;3.90;99.90
20881;DHT22;10600;53.096;8.802;2022-11-18T04:44:58;3.90;99.90
20881;DHT22;10600;53.096;8.802;2022-11-18T04:45:59;3.90;99.90
20881;DHT22;10600;53.096;8.802;2022-11-18T04:47:02;4.00;99.90
20881;DHT22;10600;53.096;8.802;2022-11-18T04:48:03;4.00;99.90
20881;DHT22;10600;53.096;8.802;2022-11-18T04:49:04;4.00;99.90
20881;DHT22;10600;53.096;8.802;2022-11-18T04:50:04;4.00;99.90
20881;DHT22;10600;53.096;8.802;2022-11-18T04:51:05;4.00;99.90
20881;DHT22;10600;53.096;8.802;2022-11-18T04:52:06;4.00;99.90
20881;DHT22;10600;53.096;8.802;2022-11-18T04:53:07;4.00;99.90
20881;DHT22;10600;53.096;8.802;2022-11-18T04:54:08;4.00;99.90
20881;DHT22;10600;53.096;8.802;2022-11-18T04:55:09;4.00;99.90
20881;DHT22;10600;53.096;8.802;2022-11-18T04:56:10;4.00;99.90
20881;DHT22;10600;53.096;8.802;2022-11-18T04:57:10;4.10;99.90
20881;DHT22;10600;53.096;8.802;2022-11-18T04:58:11;4.10;99.90
20881;DHT22;10600;53.096;8.802;2022-11-18T04:59:13;4.10;99.90
20881;DHT22;10600;53.096;8.802;2022-11-18T05:00:14;4.10;99.90
20881;DHT22;10600;53.096;8.802;2022-11-18T05:01:15;4.00;99.90
20881;DHT22;10600;53.096;8.802;2022-11-18T05:02:16;4.00;99.90
20881;DHT22;10600;53.096;8.802;2022-11-18T05:03:17;4.00;99.90
20881;DHT22;10600;53.096;8.802;2022-11-18T05:04:20;4.00;99.90
20881;DHT22;10600;53.096;8.802;2022-11-18T05:05:20;4.00;99.90
20881;DHT22;10600;53.096;8.802;2022-11-18T05:06:22;4.00;99.90
20881;DHT22;10600;53.096;8.802;2022-11-18T05:07:23;4.00;99.90
20881;DHT22;10600;53.096;8.802;2022-11-18T05:08:23;4.00;99.90
20881;DHT22;10600;53.096;8.802;2022-11-18T05:09:24;4.00;99.90
20881;DHT22;10600;53.096;8.802;2022-11-18T05:10:25;4.00;99.90
20881;DHT22;10600;53.096;8.802;2022-11-18T05:11:26;4.00;99.90
20881;DHT22;10600;53.096;8.802;2022-11-18T05:12:45;4.00;99.90
20881;DHT22;10600;53.096;8.802;2022-11-18T05:13:49;4.00;99.90
20881;DHT22;10600;53.096;8.802;2022-11-18T05:14:50;3.90;99.90
20881;DHT22;10600;53.096;8.802;2022-11-18T05:15:51;3.90;99.90
20881;DHT22;10600;53.096;8.802;2022-11-18T05:16:52;3.90;99.90
20881;DHT22;10600;53.096;8.802;2022-11-18T05:17:53;3.90;99.90
20881;DHT22;10600;53.096;8.802;2022-11-18T05:18:54;3.90;99.90
20881;DHT22;10600;53.096;8.802;2022-11-18T05:19:55;3.90;99.90
20881;DHT22;10600;53.096;8.802;2022-11-18T05:20:55;3.90;99.90
20881;DHT22;10600;53.096;8.802;2022-11-18T05:21:56;3.90;99.90
20881;DHT22;10600;53.096;8.802;2022-11-18T05:22:57;3.90;99.90
20881;DHT22;10600;53.096;8.802;2022-11-18T05:24:05;3.90;99.90
20881;DHT22;10600;53.096;8.802;2022-11-18T05:25:06;3.90;99.90
20881;DHT22;10600;53.096;8.802;2022-11-18T05:26:09;3.90;99.90
20881;DHT22;10600;53.096;8.802;2022-11-18T05:27:10;3.90;99.90
20881;DHT22;10600;53.096;8.802;2022-11-18T05:28:11;4.00;99.90
20881;DHT22;10600;53.096;8.802;2022-11-18T05:29:12;4.00;99.90
20881;DHT22;10600;53.096;8.802;2022-11-18T05:30:13;4.00;99.90
20881;DHT22;10600;53.096;8.802;2022-11-18T05:31:17;4.00;99.90
20881;DHT22;10600;53.096;8.802;2022-11-18T05:32:18;4.00;99.90
20881;DHT22;10600;53.096;8.802;2022-11-18T05:33:19;4.00;99.90
20881;DHT22;10600;53.096;8.802;2022-11-18T05:34:19;4.00;99.90
20881;DHT22;10600;53.096;8.802;2022-11-18T05:35:20;3.90;99.90
20881;DHT22;10600;53.096;8.802;2022-11-18T05:36:21;3.90;99.90
20881;DHT22;10600;53.096;8.802;2022-11-18T05:37:22;3.80;99.90
20881;DHT22;10600;53.096;8.802;2022-11-18T05:38:23;3.80;99.90
20881;DHT22;10600;53.096;8.802;2022-11-18T05:39:23;3.80;99.90
20881;DHT22;10600;53.096;8.802;2022-11-18T05:40:24;3.80;99.90
20881;DHT22;10600;53.096;8.802;2022-11-18T05:41:24;3.80;99.90
20881;DHT22;10600;53.096;8.802;2022-11-18T05:42:43;3.80;99.90
20881;DHT22;10600;53.096;8.802;2022-11-18T05:44:10;3.80;99.90
20881;DHT22;10600;53.096;8.802;2022-11-18T05:45:11;3.80;99.90
20881;DHT22;10600;53.096;8.802;2022-11-18T05:46:12;3.90;99.90
20881;DHT22;10600;53.096;8.802;2022-11-18T05:47:13;3.90;99.90
20881;DHT22;10600;53.096;8.802;2022-11-18T05:48:13;3.90;99.90
20881;DHT22;10600;53.096;8.802;2022-11-18T05:49:14;3.90;99.90
20881;DHT22;10600;53.096;8.802;2022-11-18T05:50:15;3.80;99.90
20881;DHT22;10600;53.096;8.802;2022-11-18T05:51:15;3.80;99.90
20881;DHT22;10600;53.096;8.802;2022-11-18T05:52:16;3.80;99.90
20881;DHT22;10600;53.096;8.802;2022-11-18T05:53:18;3.80;99.90
20881;DHT22;10600;53.096;8.802;2022-11-18T05:54:20;3.80;99.90
20881;DHT22;10600;53.096;8.802;2022-11-18T05:55:47;3.80;99.90
20881;DHT22;10600;53.096;8.802;2022-11-18T05:56:44;3.80;99.90
20881;DHT22;10600;53.096;8.802;2022-11-18T05:57:45;3.80;99.90
20881;DHT22;10600;53.096;8.802;2022-11-18T05:58:46;3.70;99.90
20881;DHT22;10600;53.096;8.802;2022-11-18T05:59:46;3.80;99.90
20881;DHT22;10600;53.096;8.802;2022-11-18T06:00:49;3.80;99.90
20881;DHT22;10600;53.096;8.802;2022-11-18T06:01:55;3.70;99.90
20881;DHT22;10600;53.096;8.802;2022-11-18T06:02:57;3.70;99.90
20881;DHT22;10600;53.096;8.802;2022-11-18T06:03:59;3.80;99.90
20881;DHT22;10600;53.096;8.802;2022-11-18T06:05:02;3.70;99.90
20881;DHT22;10600;53.096;8.802;2022-11-18T06:06:04;3.70;99.90
20881;DHT22;10600;53.096;8.802;2022-11-18T06:07:28;3.70;99.90
20881;DHT22;10600;53.096;8.802;2022-11-18T06:08:36;3.70;99.90
20881;DHT22;10600;53.096;8.802;2022-11-18T06:09:40;3.70;99.90
20881;DHT22;10600;53.096;8.802;2022-11-18T06:10:43;3.70;99.90
20881;DHT22;10600;53.096;8.802;2022-11-18T06:11:49;3.70;99.90
20881;DHT22;10600;53.096;8.802;2022-11-18T06:12:55;3.70;99.90
20881;DHT22;10600;53.096;8.802;2022-11-18T06:14:04;3.80;99.90
20881;DHT22;10600;53.096;8.802;2022-11-18T06:15:11;3.80;99.90
20881;DHT22;10600;53.096;8.802;2022-11-18T06:16:17;3.80;99.90
20881;DHT22;10600;53.096;8.802;2022-11-18T06:17:27;3.80;99.90
20881;DHT22;10600;53.096;8.802;2022-11-18T06:18:30;3.80;99.90
20881;DHT22;10600;53.096;8.802;2022-11-18T06:19:32;3.90;99.90
20881;DHT22;10600;53.096;8.802;2022-11-18T06:20:35;3.90;99.90
20881;DHT22;10600;53.096;8.802;2022-11-18T06:21:37;3.90;99.90
20881;DHT22;10600;53.096;8.802;2022-11-18T06:22:38;3.90;99.90
20881;DHT22;10600;53.096;8.802;2022-11-18T06:23:40;4.00;99.90
20881;DHT22;10600;53.096;8.802;2022-11-18T06:24:42;4.00;99.90
20881;DHT22;10600;53.096;8.802;2022-11-18T06:25:43;3.90;99.90
20881;DHT22;10600;53.096;8.802;2022-11-18T06:26:45;3.90;99.90
20881;DHT22;10600;53.096;8.802;2022-11-18T06:27:47;3.90;99.90
20881;DHT22;10600;53.096;8.802;2022-11-18T06:28:48;3.90;99.90
20881;DHT22;10600;53.096;8.802;2022-11-18T06:29:49;3.90;99.90
20881;DHT22;10600;53.096;8.802;2022-11-18T06:30:49;3.90;99.90
20881;DHT22;10600;53.096;8.802;2022-11-18T06:31:50;3.90;99.90
20881;DHT22;10600;53.096;8.802;2022-11-18T06:32:51;3.90;99.90
20881;DHT22;10600;53.096;8.802;2022-11-18T06:33:51;3.90;99.90
20881;DHT22;10600;53.096;8.802;2022-11-18T06:34:52;3.90;99.90
20881;DHT22;10600;53.096;8.802;2022-11-18T06:35:53;4.00;99.90
20881;DHT22;10600;53.096;8.802;2022-11-18T06:36:53;3.90;99.90
20881;DHT22;10600;53.096;8.802;2022-11-18T06:37:54;3.90;99.90
20881;DHT22;10600;53.096;8.802;2022-11-18T06:38:55;3.90;99.90
20881;DHT22;10600;53.096;8.802;2022-11-18T06:39:55;3.90;99.90
20881;DHT22;10600;53.096;8.802;2022-11-18T06:41:00;3.80;99.90
20881;DHT22;10600;53.096;8.802;2022-11-18T06:42:00;3.80;99.90
20881;DHT22;10600;53.096;8.802;2022-11-18T06:43:06;3.80;99.90
20881;DHT22;10600;53.096;8.802;2022-11-18T06:44:25;3.80;99.90
20881;DHT22;10600;53.096;8.802;2022-11-18T06:45:25;3.80;99.90
20881;DHT22;10600;53.096;8.802;2022-11-18T06:46:26;3.90;99.90
20881;DHT22;10600;53.096;8.802;2022-11-18T06:47:45;3.90;99.90
20881;DHT22;10600;53.096;8.802;2022-11-18T06:48:47;3.90;99.90
20881;DHT22;10600;53.096;8.802;2022-11-18T06:49:47;3.90;99.90
20881;DHT22;10600;53.096;8.802;2022-11-18T06:50:48;3.90;99.90
20881;DHT22;10600;53.096;8.802;2022-11-18T06:51:49;3.90;99.90
20881;DHT22;10600;53.096;8.802;2022-11-18T06:52:50;3.90;99.90
20881;DHT22;10600;53.096;8.802;2022-11-18T06:53:51;3.90;99.90
20881;DHT22;10600;53.096;8.802;2022-11-18T06:54:52;3.90;99.90
20881;DHT22;10600;53.096;8.802;2022-11-18T06:55:52;3.90;99.90
20881;DHT22;10600;53.096;8.802;2022-11-18T06:56:53;3.90;99.90
20881;DHT22;10600;53.096;8.802;2022-11-18T06:57:55;3.90;99.90
20881;DHT22;10600;53.096;8.802;2022-11-18T06:58:57;4.00;99.90
20881;DHT22;10600;53.096;8.802;2022-11-18T06:59:58;4.00;99.90
20881;DHT22;10600;53.096;8.802;2022-11-18T07:01:11;4.00;99.90
20881;DHT22;10600;53.096;8.802;2022-11-18T07:02:12;4.00;99.90
20881;DHT22;10600;53.096;8.802;2022-11-18T07:03:13;4.00;99.90
20881;DHT22;10600;53.096;8.802;2022-11-18T07:04:14;4.10;99.90
20881;DHT22;10600;53.096;8.802;2022-11-18T07:05:15;4.10;99.90
20881;DHT22;10600;53.096;8.802;2022-11-18T07:06:20;4.10;99.90
20881;DHT22;10600;53.096;8.802;2022-11-18T07:07:21;4.00;99.90
20881;DHT22;10600;53.096;8.802;2022-11-18T07:08:22;4.00;99.90
20881;DHT22;10600;53.096;8.802;2022-11-18T07:09:23;4.00;99.90
20881;DHT22;10600;53.096;8.802;2022-11-18T07:10:23;4.00;99.90
20881;DHT22;10600;53.096;8.802;2022-11-18T07:11:25;4.00;99.90
20881;DHT22;10600;53.096;8.802;2022-11-18T07:12:26;4.00;99.90
20881;DHT22;10600;53.096;8.802;2022-11-18T07:13:26;4.00;99.90